Aérodrome :
LOGIN :

S'inscrire | Disclaimer

   EN    FR    IT 

 










Légende :    VFR   VFR Marginal   IFR   IFR Intensif   IFR Très Intensif
Visi : 
Plafond : 
>= 8 km
>= 3000ft
5 à 8 km
1000 à 3000 ft
1500m à 5 km
500 à 1000 ft
800 à 1500m
200 à 500 ft
< 800m
< 200 ft
Symboles :   Orages  Brouillard  Fortes neiges  Fortes précipitations  Vent > 20 kt
SIGMETs :   Divers  Orages  Givrage  Turbulence  Onde Orograph.  Cendres Volcan.






- Altitude de l'aérodrome : 200 ft


EBBL - Klein Brogel AB

DERNIER METAR :
  • 280606Z 20004KT 0400 BR FEW001 M00/M00 Q1021 RED YLO TEMPO RED

METARs EXPIRÉS :
  • 280525Z AUTO VRB02KT 2100 BR NCD M00/M00 Q1020 YLO
  • 280513Z AUTO 21003KT 1800 BR NCD 00/M00 Q1020 YLO
  • 280425Z AUTO VRB02KT 0350 -RA OVC001/// M01/M01 Q1020 RED
  • 280355Z AUTO 21003KT 0150 -RA OVC002/// M01/M01 Q1020 RED
  • 280325Z AUTO 22003KT 0150 -RA OVC002/// M01/M01 Q1020 RED
  • 280255Z AUTO 22003KT 0150 -RA OVC002/// M01/M01 Q1020 RED
  • 280225Z AUTO VRB02KT 0200 -RA OVC002/// M02/M02 Q1020 RED
  • 280155Z AUTO VRB02KT 0250 -RA OVC002/// M01/M01 Q1020 RED
  • 280125Z AUTO VRB02KT 0100 -RA OVC001/// M00/M00 Q1020 RED

TAF AMD TAF EBBL
Valide du 27 à 19h jusqu'au 28 à 07h UTC


271935Z 2719/2807 01005KT 8000 FEW015
BECMG 2719/2721 VRB02KT 4000 BR SCT015 SCT200
BECMG 2720/2722 3000 BR BKN100
TEMPO 2800/2807 1000 FG
PROB30
TEMPO 2800/2807 0500 FG



MET'MAP, la Météo Aéronautique d'un coup d'oeil ! - Copyright ORBIFLY Décembre 2007 - Disclaimer

ORBIFLY MET'MAP TEAM :

Programmation & Développement : Alexandra Zaïnal
Sur une idée originale de : Baudouin d'Aumeries
Soutien technique & logistique : Manuel Goepfert
Assistance : Marc-Olivier Méhu




SOURCES & CREDITS :

   NOAA